Time;durP1;ratioP1;P1;durP2;ratioP2;P2;SDS_P1;SDS_P2;PMS_P1;PMS_P2;Temp;Humidity;BMP_temperature;BMP_pressure;BME280_temperature;BME280_humidity;BME280_pressure;Samples;Min_cycle;Max_cycle;Signal;HPM_P1;HPM_P2
2023/01/07 00:01:38;;;;;;;2.80;1.85;;;;;;;10.01;100.00;100859.06;5063577;28;20200;-76
2023/01/07 00:04:06;;;;;;;2.58;1.75;;;;;;;10.01;100.00;100859.06;5062953;28;20205;-74
2023/01/07 00:06:35;;;;;;;2.75;1.85;;;;;;;10.01;100.00;100859.94;5062647;28;20225;-74
2023/01/07 00:09:05;;;;;;;3.08;2.03;;;;;;;10.08;100.00;100860.59;5044460;28;20209;-75
2023/01/07 00:11:34;;;;;;;3.65;2.47;;;;;;;9.96;100.00;100850.28;5067236;28;20205;-75
2023/01/07 00:14:02;;;;;;;3.38;2.15;;;;;;;9.94;100.00;100849.47;5064417;28;20197;-72
2023/01/07 00:16:30;;;;;;;3.80;2.00;;;;;;;9.94;100.00;100849.47;5062091;28;20193;-73
2023/01/07 00:18:59;;;;;;;3.65;2.28;;;;;;;9.98;100.00;100841.22;5061768;28;20227;-72
2023/01/07 00:21:27;;;;;;;2.72;1.85;;;;;;;9.98;100.00;100841.22;5060835;28;20319;-72
2023/01/07 00:23:55;;;;;;;2.40;1.80;;;;;;;9.90;100.00;100837.91;5062564;28;20204;-74
2023/01/07 00:26:25;;;;;;;2.65;2.00;;;;;;;9.93;100.00;100845.91;5062535;28;20276;-74
2023/01/07 00:28:53;;;;;;;2.95;1.83;;;;;;;9.97;100.00;100834.09;5062987;28;20225;-74
2023/01/07 00:31:21;;;;;;;4.35;2.30;;;;;;;9.94;100.00;100844.94;5063196;28;20209;-75
2023/01/07 00:33:52;;;;;;;3.42;2.10;;;;;;;9.98;100.00;100843.03;5062170;28;20287;-74
2023/01/07 00:36:19;;;;;;;4.32;2.20;;;;;;;9.93;100.00;100836.97;5061471;28;20193;-75
2023/01/07 00:38:46;;;;;;;3.25;1.95;;;;;;;9.93;100.00;100842.34;5061084;28;20227;-74
2023/01/07 00:41:13;;;;;;;4.55;2.10;;;;;;;9.84;100.00;100837.28;5060446;28;20208;-74
2023/01/07 00:43:41;;;;;;;3.15;2.17;;;;;;;9.95;100.00;100829.69;5060118;28;20642;-75
2023/01/07 00:46:10;;;;;;;4.25;3.15;;;;;;;9.94;100.00;100828.81;5060058;28;20682;-74
2023/01/07 00:48:36;;;;;;;4.03;3.17;;;;;;;9.88;100.00;100831.75;5058616;28;20305;-72
2023/01/07 00:51:03;;;;;;;3.97;2.10;;;;;;;9.91;100.00;100839.69;5059555;28;20239;-74
2023/01/07 00:53:30;;;;;;;2.80;2.25;;;;;;;9.94;100.00;100828.81;5058810;28;20203;-72
2023/01/07 00:55:56;;;;;;;2.90;2.05;;;;;;;10.02;100.00;100815.09;5064111;28;20608;-72
2023/01/07 00:58:25;;;;;;;4.45;2.40;;;;;;;9.98;100.00;100822.38;5071399;28;20225;-73
2023/01/07 01:00:56;;;;;;;4.63;2.30;;;;;;;10.00;100.00;100825.91;5071481;28;20228;-74
2023/01/07 01:03:23;;;;;;;2.88;2.40;;;;;;;10.03;100.00;100824.91;5075823;28;20228;-72
2023/01/07 01:05:49;;;;;;;2.78;2.00;;;;;;;10.00;100.00;100812.44;5074705;28;20236;-72
2023/01/07 01:08:16;;;;;;;3.65;1.92;;;;;;;10.03;100.00;100817.72;5071415;28;20293;-71
2023/01/07 01:10:43;;;;;;;2.80;2.08;;;;;;;10.02;100.00;100807.03;5071406;28;20268;-72
2023/01/07 01:13:13;;;;;;;4.30;2.53;;;;;;;10.05;100.00;100814.09;5071462;28;20193;-72
2023/01/07 01:15:42;;;;;;;2.88;2.10;;;;;;;10.06;100.00;100805.94;5071649;28;20205;-73
2023/01/07 01:18:10;;;;;;;3.35;2.35;;;;;;;10.06;100.00;100805.94;5071060;28;20284;-73
2023/01/07 01:20:37;;;;;;;3.97;2.13;;;;;;;10.00;100.00;100807.06;5067750;28;20236;-73
2023/01/07 01:23:04;;;;;;;2.75;2.05;;;;;;;10.06;100.00;100800.56;5061818;28;20232;-75
2023/01/07 01:25:30;;;;;;;3.05;2.10;;;;;;;10.08;100.00;100801.41;5060736;28;20201;-74
2023/01/07 01:27:57;;;;;;;2.67;2.13;;;;;;;10.08;100.00;100798.69;5060243;28;20312;-75
2023/01/07 01:30:24;;;;;;;1.77;1.50;;;;;;;10.05;100.00;100798.81;5060746;28;20209;-74
2023/01/07 01:32:51;;;;;;;3.25;2.20;;;;;;;10.09;100.00;100802.28;5062130;28;20193;-74
2023/01/07 01:35:19;;;;;;;4.22;1.90;;;;;;;10.11;100.00;100795.91;5061577;28;20288;-73
2023/01/07 01:37:45;;;;;;;2.90;2.30;;;;;;;10.11;100.00;100792.34;5061980;28;20221;-74
2023/01/07 01:40:12;;;;;;;2.58;2.15;;;;;;;10.05;100.00;100796.13;5064318;28;20207;-74
2023/01/07 01:42:39;;;;;;;2.85;2.15;;;;;;;10.04;100.00;100797.09;5062804;28;20204;-74
2023/01/07 01:45:07;;;;;;;3.25;2.40;;;;;;;10.05;100.00;100798.81;5063919;28;20217;-73
2023/01/07 01:47:37;;;;;;;2.63;2.05;;;;;;;10.11;100.00;100785.16;5064137;28;20233;-75
2023/01/07 01:50:10;;;;;;;5.45;2.50;;;;;;;10.13;100.00;100787.75;5061702;28;20272;-74
2023/01/07 01:52:44;;;;;;;2.10;1.90;;;;;;;10.13;100.00;100782.38;5061333;28;20787;-72
2023/01/07 01:55:16;;;;;;;2.78;2.25;;;;;;;10.06;100.00;100783.56;5039332;28;20616;-73
2023/01/07 01:57:43;;;;;;;3.15;2.15;;;;;;;10.07;100.00;100778.13;5038389;28;20657;-72
2023/01/07 02:00:11;;;;;;;2.20;2.00;;;;;;;10.13;100.00;100785.97;5038264;28;20660;-72
2023/01/07 02:02:44;;;;;;;3.35;2.10;;;;;;;10.13;100.00;100779.69;5053423;28;20547;-73
2023/01/07 02:05:11;;;;;;;4.15;2.03;;;;;;;10.13;100.00;100782.38;5057575;28;20475;-73
2023/01/07 02:07:39;;;;;;;2.88;2.20;;;;;;;10.14;100.00;100776.94;5056679;28;20247;-72
2023/01/07 02:10:12;;;;;;;3.00;2.00;;;;;;;10.08;100.00;100768.22;5057178;28;20636;-72
2023/01/07 02:13:17;;;;;;;3.40;2.15;;;;;;;10.06;100.00;100770.97;5057553;28;20558;-73
2023/01/07 02:15:56;;;;;;;4.45;2.83;;;;;;;10.08;100.00;100766.41;5047605;28;20284;-74
2023/01/07 02:18:52;;;;;;;4.20;2.78;;;;;;;10.13;100.00;100759.06;5056541;28;20236;-75
2023/01/07 02:21:31;;;;;;;2.60;2.03;;;;;;;10.10;100.00;100759.16;4986457;28;20208;-72
2023/01/07 02:24:37;;;;;;;2.50;2.13;;;;;;;10.11;100.00;100743.91;4975925;28;20203;-73
2023/01/07 02:27:16;;;;;;;2.13;1.80;;;;;;;10.07;100.00;100751.22;4976491;28;20732;-74
2023/01/07 02:30:19;;;;;;;3.47;2.60;;;;;;;10.13;100.00;100748.28;4991013;28;20267;-73
2023/01/07 02:33:08;;;;;;;3.85;2.08;;;;;;;10.05;100.00;100747.69;4917112;29;20257;-74
2023/01/07 02:36:14;;;;;;;2.30;1.80;;;;;;;10.13;100.00;100750.09;4917243;29;20202;-74
2023/01/07 02:38:52;;;;;;;4.43;2.03;;;;;;;10.05;100.00;100745.00;4910353;29;20211;-73
2023/01/07 02:41:27;;;;;;;3.00;2.03;;;;;;;10.03;100.00;100745.06;4901456;29;20202;-72
2023/01/07 02:44:03;;;;;;;3.15;2.10;;;;;;;10.01;100.00;100743.34;4907607;29;20206;-74
2023/01/07 02:46:36;;;;;;;4.30;2.55;;;;;;;10.07;100.00;100740.44;4905458;29;20205;-72
2023/01/07 02:49:09;;;;;;;5.05;2.95;;;;;;;10.08;100.00;100738.63;4902081;29;20290;-73
2023/01/07 02:51:37;;;;;;;2.90;2.40;;;;;;;10.06;100.00;100733.28;4903365;29;20795;-72
2023/01/07 02:54:06;;;;;;;4.32;2.70;;;;;;;10.06;100.00;100735.13;4904295;29;20637;-73
2023/01/07 02:56:49;;;;;;;3.05;2.30;;;;;;;10.03;100.00;100728.91;4900260;29;20653;-71
2023/01/07 02:59:37;;;;;;;3.03;2.20;;;;;;;10.10;100.00;100728.69;4965058;28;20633;-74
2023/01/07 03:02:20;;;;;;;3.40;2.75;;;;;;;10.05;100.00;100728.88;4974289;28;20647;-72
2023/01/07 03:05:07;;;;;;;3.60;2.90;;;;;;;10.03;100.00;100726.22;4974373;28;20188;-71
2023/01/07 03:07:46;;;;;;;3.08;2.30;;;;;;;10.06;100.00;100733.28;4973829;28;20610;-73
2023/01/07 03:10:24;;;;;;;3.83;2.80;;;;;;;10.08;100.00;100730.56;5038500;28;20197;-72
2023/01/07 03:12:57;;;;;;;5.15;3.00;;;;;;;10.05;100.00;100731.56;5055770;28;20736;-71
2023/01/07 03:15:28;;;;;;;4.25;3.05;;;;;;;10.06;100.00;100730.59;5055514;28;20469;-73
2023/01/07 03:18:01;;;;;;;4.72;3.35;;;;;;;10.01;100.00;100730.78;5055009;28;20217;-71
2023/01/07 03:20:31;;;;;;;4.45;3.55;;;;;;;9.94;100.00;100725.69;5055971;28;20189;-73
2023/01/07 03:22:58;;;;;;;3.85;3.13;;;;;;;9.97;100.00;100720.19;5059886;28;20261;-73
2023/01/07 03:25:28;;;;;;;4.13;2.97;;;;;;;10.02;100.00;100718.22;5060033;28;20579;-72
2023/01/07 03:27:57;;;;;;;3.33;2.60;;;;;;;9.87;100.00;100716.97;5063119;22;20223;-75
2023/01/07 03:30:25;;;;;;;4.63;3.35;;;;;;;9.91;100.00;100724.00;5014696;28;20213;-73
2023/01/07 03:32:57;;;;;;;3.30;2.90;;;;;;;9.86;100.00;100723.31;5014700;28;20572;-74
2023/01/07 03:35:26;;;;;;;4.50;2.67;;;;;;;9.92;100.00;100723.06;5013152;28;20257;-74
2023/01/07 03:37:55;;;;;;;4.03;3.08;;;;;;;9.87;100.00;100718.78;5012043;28;20712;-73
2023/01/07 03:40:23;;;;;;;5.15;3.17;;;;;;;9.82;100.00;100714.47;5012885;28;20195;-73
2023/01/07 03:42:49;;;;;;;5.22;3.80;;;;;;;9.79;100.00;100711.00;5013645;28;20242;-74
2023/01/07 03:45:17;;;;;;;6.03;4.20;;;;;;;9.78;100.00;100711.94;5017243;28;20209;-75
2023/01/07 03:47:46;;;;;;;3.15;2.70;;;;;;;9.85;100.00;100705.38;5017697;28;20485;-75
2023/01/07 03:50:13;;;;;;;3.97;3.00;;;;;;;9.77;100.00;100705.69;5017688;28;20194;-74
2023/01/07 03:52:39;;;;;;;5.32;3.53;;;;;;;9.73;100.00;100712.13;5017576;28;20198;-73
2023/01/07 03:55:08;;;;;;;4.22;3.83;;;;;;;9.74;100.00;100702.22;5017441;28;20202;-74
2023/01/07 03:57:35;;;;;;;4.20;3.80;;;;;;;9.85;100.00;100704.53;5023920;28;20212;-75
2023/01/07 04:00:01;;;;;;;6.78;4.30;;;;;;;9.85;100.00;100700.00;5029135;28;20199;-74
2023/01/07 04:02:28;;;;;;;4.32;3.60;;;;;;;9.70;100.00;100697.88;5026012;28;20205;-74
2023/01/07 04:04:54;;;;;;;5.43;3.63;;;;;;;9.69;100.00;100699.72;5022313;28;20684;-74
2023/01/07 04:07:21;;;;;;;6.47;4.22;;;;;;;9.74;100.00;100688.78;5017624;28;20228;-74
2023/01/07 04:09:49;;;;;;;5.75;4.40;;;;;;;9.71;100.00;100691.59;5017356;28;20218;-76
2023/01/07 04:12:17;;;;;;;4.20;3.80;;;;;;;9.70;100.00;100692.50;5029946;28;20186;-74
2023/01/07 04:14:44;;;;;;;6.45;4.53;;;;;;;9.70;100.00;100696.09;5040709;28;20221;-74
2023/01/07 04:17:11;;;;;;;5.88;4.43;;;;;;;9.70;100.00;100687.13;5040034;28;20202;-74
2023/01/07 04:19:38;;;;;;;5.60;4.40;;;;;;;9.72;100.00;100677.19;5039028;28;20246;-73
2023/01/07 04:22:05;;;;;;;4.90;3.90;;;;;;;9.70;100.00;100673.69;5040015;28;20190;-73
2023/01/07 04:24:32;;;;;;;4.53;3.80;;;;;;;9.67;100.00;100677.38;5030984;28;20209;-75
2023/01/07 04:26:59;;;;;;;5.28;4.05;;;;;;;9.70;100.00;100679.06;5021915;28;20234;-74
2023/01/07 04:29:26;;;;;;;7.85;4.55;;;;;;;9.67;100.00;100663.91;5016110;28;20700;-74
2023/01/07 04:31:53;;;;;;;3.85;3.45;;;;;;;9.68;100.00;100660.31;5017976;28;20206;-74
2023/01/07 04:34:20;;;;;;;5.55;3.67;;;;;;;9.70;100.00;100662.91;5017615;28;20469;-75
2023/01/07 04:36:47;;;;;;;4.97;4.30;;;;;;;9.65;100.00;100654.16;5018250;28;20285;-75
2023/01/07 04:39:14;;;;;;;6.05;4.28;;;;;;;9.68;100.00;100659.41;5013755;28;20219;-74
2023/01/07 04:41:40;;;;;;;4.63;4.20;;;;;;;9.70;100.00;100657.53;5015007;28;20221;-74
2023/01/07 04:44:07;;;;;;;11.48;4.25;;;;;;;9.73;100.00;100654.75;5013518;28;20563;-76
2023/01/07 04:46:35;;;;;;;7.50;4.63;;;;;;;9.71;100.00;100653.94;4997886;28;20203;-74
2023/01/07 04:49:01;;;;;;;5.78;4.07;;;;;;;9.69;100.00;100653.13;5011135;28;20227;-74
2023/01/07 04:51:28;;;;;;;3.55;3.10;;;;;;;9.69;100.00;100653.13;5017079;28;20195;-76
2023/01/07 04:53:56;;;;;;;5.70;4.20;;;;;;;9.72;100.00;100653.00;5016920;28;20209;-73
2023/01/07 04:56:22;;;;;;;5.97;3.60;;;;;;;9.69;100.00;100642.34;5012137;28;20268;-74
2023/01/07 04:58:49;;;;;;;5.88;4.05;;;;;;;9.69;100.00;100643.22;4996833;28;20661;-75
2023/01/07 05:01:15;;;;;;;4.50;4.10;;;;;;;9.70;100.00;100636.03;5006605;28;20205;-74
2023/01/07 05:03:43;;;;;;;4.70;3.60;;;;;;;9.74;100.00;100632.28;5016624;28;20207;-74
2023/01/07 05:06:10;;;;;;;4.13;3.70;;;;;;;9.70;100.00;100630.66;5017057;28;20673;-74
2023/01/07 05:08:37;;;;;;;5.72;4.30;;;;;;;9.69;100.00;100623.53;5022994;28;20222;-74
2023/01/07 05:11:04;;;;;;;7.75;3.85;;;;;;;9.77;100.00;100614.25;5029420;28;20202;-75
2023/01/07 05:13:31;;;;;;;5.50;3.80;;;;;;;9.72;100.00;100612.66;5025478;28;20210;-74
2023/01/07 05:15:57;;;;;;;5.25;4.07;;;;;;;9.68;100.00;100609.22;5023708;28;20191;-74
2023/01/07 05:18:24;;;;;;;5.10;3.20;;;;;;;9.73;100.00;100609.91;5018847;28;20215;-74
2023/01/07 05:20:52;;;;;;;4.75;3.83;;;;;;;9.70;100.00;100610.03;5020005;28;20262;-73
2023/01/07 05:23:18;;;;;;;4.60;3.42;;;;;;;9.73;100.00;100612.59;5018687;28;20214;-75
2023/01/07 05:25:45;;;;;;;3.90;3.30;;;;;;;9.68;100.00;100609.22;5019733;28;20233;-74
2023/01/07 05:28:11;;;;;;;6.10;3.53;;;;;;;9.75;100.00;100607.16;5020262;28;20605;-74
2023/01/07 05:30:38;;;;;;;6.10;4.03;;;;;;;9.82;100.00;100612.25;5017643;28;20202;-74
2023/01/07 05:33:07;;;;;;;3.75;3.35;;;;;;;9.81;100.00;100610.50;4999686;28;20253;-75
2023/01/07 05:35:34;;;;;;;3.78;3.28;;;;;;;9.72;100.00;100613.53;4998057;28;20199;-74
2023/01/07 05:38:01;;;;;;;5.10;3.60;;;;;;;9.80;100.00;100606.03;5007049;28;20219;-73
2023/01/07 05:40:28;;;;;;;4.07;3.17;;;;;;;9.74;100.00;100606.25;5016144;28;20556;-75
2023/01/07 05:42:55;;;;;;;5.18;3.78;;;;;;;9.70;100.00;100604.66;5014239;28;20576;-74
2023/01/07 05:45:21;;;;;;;4.93;3.67;;;;;;;9.70;100.00;100599.28;5015107;28;20285;-74
2023/01/07 05:47:48;;;;;;;4.47;2.90;;;;;;;9.80;100.00;100602.47;5014943;28;20227;-74
2023/01/07 05:50:15;;;;;;;5.68;3.50;;;;;;;9.79;100.00;100592.63;5015568;28;20203;-75
2023/01/07 05:52:42;;;;;;;3.90;2.90;;;;;;;9.81;100.00;100593.47;5015785;28;20581;-74
2023/01/07 05:55:09;;;;;;;4.18;3.15;;;;;;;9.83;100.00;100591.59;5015027;28;20743;-74
2023/01/07 05:57:36;;;;;;;4.85;3.33;;;;;;;9.84;100.00;100587.97;5014183;28;20213;-75
2023/01/07 06:00:04;;;;;;;3.42;3.10;;;;;;;9.85;100.00;100592.41;5007115;28;20691;-74
2023/01/07 06:02:30;;;;;;;5.15;3.80;;;;;;;9.75;100.00;100580.28;5010219;28;20229;-74
2023/01/07 06:04:57;;;;;;;11.20;7.28;;;;;;;9.84;100.00;100587.13;5015458;28;20198;-74
2023/01/07 06:07:23;;;;;;;5.40;3.70;;;;;;;9.86;100.00;100582.50;5015434;28;20207;-74
2023/01/07 06:09:50;;;;;;;4.28;3.55;;;;;;;9.84;100.00;100576.34;5014940;28;20226;-75
2023/01/07 06:12:17;;;;;;;3.05;2.58;;;;;;;9.94;100.00;100580.41;5015645;28;20209;-73
2023/01/07 06:14:44;;;;;;;4.55;3.42;;;;;;;9.86;100.00;100574.44;5016995;28;20289;-74
2023/01/07 06:17:11;;;;;;;5.00;3.63;;;;;;;9.95;100.00;100569.59;5030410;28;20237;-74
2023/01/07 06:19:37;;;;;;;2.97;2.60;;;;;;;9.94;100.00;100573.22;5021557;28;20309;-74
2023/01/07 06:22:04;;;;;;;3.90;2.60;;;;;;;9.90;100.00;100574.25;5021979;28;20649;-74
2023/01/07 06:24:31;;;;;;;4.30;3.00;;;;;;;9.89;100.00;100566.28;5015730;28;20202;-73
2023/01/07 06:26:57;;;;;;;3.47;2.70;;;;;;;9.84;100.00;100571.84;5013278;28;20222;-74
2023/01/07 06:29:25;;;;;;;3.35;2.90;;;;;;;9.86;100.00;100571.75;5011718;28;20227;-75
2023/01/07 06:31:52;;;;;;;3.50;2.80;;;;;;;9.83;100.00;100559.31;5016935;28;20199;-74
2023/01/07 06:34:18;;;;;;;3.83;2.97;;;;;;;9.87;100.00;100549.31;4999189;28;20285;-74
2023/01/07 06:36:45;;;;;;;4.22;3.25;;;;;;;9.85;100.00;100544.00;4999488;28;20741;-74
2023/01/07 06:39:11;;;;;;;4.85;2.50;;;;;;;9.89;100.00;100542.06;4993329;28;20230;-74
2023/01/07 06:41:38;;;;;;;3.65;2.83;;;;;;;9.92;100.00;100541.94;5008414;28;20203;-72
2023/01/07 06:44:05;;;;;;;4.43;2.63;;;;;;;9.95;100.00;100541.78;5012242;28;20202;-74
2023/01/07 06:46:33;;;;;;;5.65;2.70;;;;;;;9.95;100.00;100531.03;5012769;28;20222;-73
2023/01/07 06:48:59;;;;;;;3.22;2.90;;;;;;;9.87;100.00;100527.78;5013043;28;20237;-73
2023/01/07 06:51:26;;;;;;;4.68;3.00;;;;;;;9.84;100.00;100533.31;5012647;28;20568;-73
2023/01/07 06:53:52;;;;;;;3.80;2.80;;;;;;;9.79;100.00;100526.28;5013431;28;20194;-73
2023/01/07 06:56:19;;;;;;;3.55;2.45;;;;;;;9.77;100.00;100528.16;5015062;28;20266;-73
2023/01/07 06:58:45;;;;;;;8.57;3.13;;;;;;;9.78;100.00;100527.22;5023401;28;20218;-73
2023/01/07 07:01:18;;;;;;;2.78;2.10;;;;;;;9.75;100.00;100513.91;5020786;28;20285;-74
2023/01/07 07:03:46;;;;;;;3.08;2.67;;;;;;;9.73;100.00;100522.97;5012123;28;20195;-75
2023/01/07 07:06:14;;;;;;;3.28;2.50;;;;;;;9.76;100.00;100517.47;5013234;28;20293;-73
2023/01/07 07:08:41;;;;;;;4.25;2.65;;;;;;;9.84;100.00;100509.09;5013484;28;20704;-73
2023/01/07 07:11:07;;;;;;;3.60;2.85;;;;;;;9.79;100.00;100515.53;4994157;28;20209;-73
2023/01/07 07:13:34;;;;;;;3.70;2.20;;;;;;;9.87;100.00;100504.44;4993448;28;20196;-74
2023/01/07 07:16:01;;;;;;;4.45;2.30;;;;;;;9.80;100.00;100503.81;4992858;28;20207;-71
2023/01/07 07:18:27;;;;;;;3.28;2.60;;;;;;;9.84;100.00;100507.28;4991824;28;20228;-72
2023/01/07 07:20:57;;;;;;;3.25;2.42;;;;;;;9.89;100.00;100499.03;5011754;28;20199;-72
2023/01/07 07:23:24;;;;;;;2.95;2.30;;;;;;;9.92;100.00;100499.75;5013483;28;20617;-72
2023/01/07 07:25:50;;;;;;;4.20;2.75;;;;;;;9.93;100.00;100495.28;5003367;28;20202;-71
2023/01/07 07:28:17;;;;;;;3.53;2.45;;;;;;;9.90;100.00;100493.56;4997632;28;20232;-72
2023/01/07 07:30:43;;;;;;;3.50;2.45;;;;;;;9.79;100.00;100494.03;5014848;28;20186;-73
2023/01/07 07:33:11;;;;;;;2.90;2.50;;;;;;;9.92;100.00;100488.13;5012398;28;20204;-74
2023/01/07 07:35:38;;;;;;;3.72;2.67;;;;;;;9.91;100.00;100498.00;5000874;28;20199;-73
2023/01/07 07:38:05;;;;;;;5.28;2.60;;;;;;;9.87;100.00;100503.59;5018872;28;20456;-73
2023/01/07 07:40:32;;;;;;;4.85;2.58;;;;;;;9.90;100.00;100488.16;5035155;28;20217;-72
2023/01/07 07:42:59;;;;;;;5.22;2.95;;;;;;;9.94;100.00;100491.63;5034610;28;20217;-73
2023/01/07 07:45:25;;;;;;;6.20;2.67;;;;;;;10.00;100.00;100492.25;5033855;28;20193;-73
2023/01/07 07:47:52;;;;;;;3.63;2.65;;;;;;;10.02;100.00;100494.88;5032110;28;20285;-74
2023/01/07 07:50:19;;;;;;;5.15;2.97;;;;;;;10.01;100.00;100495.81;5017292;28;20223;-73
2023/01/07 07:52:45;;;;;;;3.88;2.90;;;;;;;10.12;100.00;100493.53;5012757;28;20198;-73
2023/01/07 07:55:13;;;;;;;4.90;3.75;;;;;;;10.20;100.00;100485.16;5012131;28;20195;-71
2023/01/07 07:57:40;;;;;;;36.22;25.20;;;;;;;10.61;100.00;100477.16;5010571;28;20249;-70
2023/01/07 08:00:08;;;;;;;18.85;11.63;;;;;;;10.80;100.00;100486.13;5010836;28;20206;-71
2023/01/07 08:02:34;;;;;;;5.38;3.60;;;;;;;10.52;100.00;100482.94;5011412;28;20204;-72
2023/01/07 08:05:01;;;;;;;5.93;2.90;;;;;;;10.42;100.00;100471.66;5011866;28;20281;-73
2023/01/07 08:07:27;;;;;;;2.70;2.30;;;;;;;10.29;100.00;100467.75;5012819;28;20213;-72
2023/01/07 08:09:54;;;;;;;3.50;2.72;;;;;;;10.30;100.00;100469.53;5010366;28;20587;-71
2023/01/07 08:12:22;;;;;;;3.45;2.60;;;;;;;10.33;100.00;100466.69;5012326;28;20249;-71
2023/01/07 08:14:48;;;;;;;4.22;2.35;;;;;;;10.33;100.00;100466.69;5012310;28;20295;-71
2023/01/07 08:17:15;;;;;;;2.47;1.92;;;;;;;10.32;100.00;100475.72;5011494;28;20205;-71
2023/01/07 08:19:41;;;;;;;5.15;2.35;;;;;;;10.28;100.00;100464.16;5010898;28;20318;-72
2023/01/07 08:22:08;;;;;;;2.10;1.73;;;;;;;10.29;100.00;100468.66;5011667;28;20210;-71
2023/01/07 08:24:34;;;;;;;2.35;1.92;;;;;;;10.25;100.00;100461.63;5011485;28;20209;-72
2023/01/07 08:27:01;;;;;;;5.68;1.80;;;;;;;10.31;100.00;100457.81;5011157;28;20207;-71
2023/01/07 08:29:29;;;;;;;2.78;2.15;;;;;;;10.33;100.00;100464.88;5010259;28;20232;-72
2023/01/07 08:31:56;;;;;;;2.80;2.20;;;;;;;10.30;100.00;100459.63;4997601;28;20241;-70
2023/01/07 08:34:22;;;;;;;3.47;2.50;;;;;;;10.38;100.00;100456.63;5016099;28;20293;-71
2023/01/07 08:36:49;;;;;;;4.10;2.13;;;;;;;10.30;100.00;100454.25;5018021;28;20222;-71
2023/01/07 08:39:16;;;;;;;2.55;1.90;;;;;;;10.38;100.00;100451.22;5015256;28;20285;-71
2023/01/07 08:41:42;;;;;;;2.50;1.70;;;;;;;10.47;100.00;100444.53;5013284;28;20695;-71
2023/01/07 08:44:09;;;;;;;2.30;1.80;;;;;;;10.36;100.00;100453.13;5016752;28;20203;-72
2023/01/07 08:46:37;;;;;;;3.67;1.90;;;;;;;10.39;100.00;100458.34;5015855;28;20195;-70
2023/01/07 08:49:04;;;;;;;2.33;1.50;;;;;;;10.33;100.00;100446.03;5014476;28;20258;-70
2023/01/07 08:51:30;;;;;;;1.85;1.45;;;;;;;10.38;100.00;100440.47;5016039;28;20199;-71
2023/01/07 08:53:57;;;;;;;2.63;1.70;;;;;;;10.43;100.00;100438.44;5016446;28;20558;-71
2023/01/07 08:56:23;;;;;;;2.25;1.50;;;;;;;10.49;100.00;100434.59;5021145;28;20203;-71
2023/01/07 08:58:50;;;;;;;2.22;1.45;;;;;;;10.41;100.00;100435.81;5022882;28;20257;-72
2023/01/07 09:01:16;;;;;;;1.77;1.40;;;;;;;10.42;100.00;100432.19;5022510;28;20198;-70
2023/01/07 09:03:44;;;;;;;2.40;1.25;;;;;;;10.51;100.00;100420.09;5018238;28;20203;-71
2023/01/07 09:06:11;;;;;;;2.55;1.80;;;;;;;10.51;100.00;100436.25;5015977;28;20289;-71
2023/01/07 09:08:39;;;;;;;2.15;1.42;;;;;;;10.42;100.00;100420.50;5013610;28;20221;-70
2023/01/07 09:11:06;;;;;;;2.17;1.35;;;;;;;10.50;100.00;100420.19;4997474;28;20207;-71
2023/01/07 09:13:32;;;;;;;2.22;1.50;;;;;;;10.45;100.00;100420.41;5014011;28;20207;-71
2023/01/07 09:15:59;;;;;;;2.47;1.40;;;;;;;10.50;100.00;100414.81;4996873;28;20203;-71
2023/01/07 09:18:26;;;;;;;2.80;1.60;;;;;;;10.55;100.00;100413.63;5005683;28;20215;-71
2023/01/07 09:20:54;;;;;;;2.33;1.42;;;;;;;10.55;100.00;100410.94;5012700;28;20563;-71
2023/01/07 09:23:20;;;;;;;1.60;1.20;;;;;;;10.56;100.00;100409.13;5015392;28;20203;-71
2023/01/07 09:25:47;;;;;;;2.30;1.30;;;;;;;10.53;100.00;100417.34;5015673;28;20217;-71
2023/01/07 09:28:13;;;;;;;2.05;1.10;;;;;;;10.59;100.00;100417.94;5013379;28;20238;-71
2023/01/07 09:30:40;;;;;;;2.15;1.35;;;;;;;10.63;100.00;100413.31;5014323;28;20281;-71
2023/01/07 09:33:06;;;;;;;1.77;1.40;;;;;;;10.63;100.00;100410.63;5014682;28;20282;-71
2023/01/07 09:35:33;;;;;;;1.98;1.23;;;;;;;10.64;100.00;100407.84;5014604;28;20699;-72
2023/01/07 09:38:01;;;;;;;58.90;38.50;;;;;;;10.90;100.00;100397.69;5014628;28;20228;-69
2023/01/07 09:40:32;;;;;;;8.70;5.90;;;;;;;11.05;100.00;100399.66;5018974;28;20199;-72
2023/01/07 09:43:06;;;;;;;2.60;2.00;;;;;;;10.85;100.00;100395.22;5020459;28;20198;-73
2023/01/07 09:45:36;;;;;;;2.55;1.45;;;;;;;10.83;100.00;100399.81;5018570;28;20182;-72
2023/01/07 09:48:09;;;;;;;2.33;1.30;;;;;;;10.77;100.00;100394.69;5024406;22;20309;-74
2023/01/07 09:50:48;;;;;;;2.95;1.33;;;;;;;10.80;100.00;100394.53;5020501;28;20654;-73
2023/01/07 09:53:21;;;;;;;1.95;1.33;;;;;;;10.77;100.00;100393.81;5016242;28;20195;-72
2023/01/07 09:55:51;;;;;;;3.10;1.60;;;;;;;10.77;100.00;100388.44;5000353;28;20587;-73
2023/01/07 09:58:20;;;;;;;2.63;1.52;;;;;;;10.76;100.00;100392.06;5018733;28;20217;-75
2023/01/07 10:00:57;;;;;;;2.30;1.30;;;;;;;10.77;100.00;100388.44;5023045;28;20190;-74
2023/01/07 10:03:36;;;;;;;1.77;1.10;;;;;;;10.84;100.00;100379.13;5016484;28;20254;-75
2023/01/07 10:06:11;;;;;;;1.63;1.20;;;;;;;10.75;100.00;100380.41;5021936;28;20226;-74
2023/01/07 10:08:53;;;;;;;3.15;2.03;;;;;;;10.76;100.00;100376.78;5025226;28;20218;-75
2023/01/07 10:11:35;;;;;;;2.15;1.38;;;;;;;10.76;100.00;100368.72;5023917;28;20285;-74
2023/01/07 10:14:33;;;;;;;2.78;1.30;;;;;;;10.90;100.00;100370.75;5016618;28;20254;-74
2023/01/07 10:17:08;;;;;;;2.10;1.25;;;;;;;11.14;100.00;100359.72;4933444;29;20260;-73
2023/01/07 10:19:44;;;;;;;1.50;1.20;;;;;;;11.10;100.00;100355.44;4937363;29;20287;-74
2023/01/07 10:22:19;;;;;;;1.90;1.40;;;;;;;11.17;100.00;100363.16;4933818;29;20206;-74
2023/01/07 10:24:53;;;;;;;1.65;1.13;;;;;;;11.21;100.00;100350.41;4917422;29;20186;-74
2023/01/07 10:27:28;;;;;;;1.80;1.30;;;;;;;11.13;100.00;100352.63;4930542;29;20357;-74
2023/01/07 10:29:58;;;;;;;2.22;1.30;;;;;;;11.19;100.00;100352.28;4933385;29;20271;-71
2023/01/07 10:32:31;;;;;;;1.80;1.35;;;;;;;11.27;100.00;100344.72;4936397;29;20207;-74
2023/01/07 10:35:00;;;;;;;1.95;1.25;;;;;;;11.27;100.00;100345.59;4936934;29;20942;-73
2023/01/07 10:37:30;;;;;;;2.35;1.50;;;;;;;11.39;100.00;100327.06;4937437;29;20320;-74
2023/01/07 10:40:12;;;;;;;1.80;1.20;;;;;;;11.48;100.00;100327.44;4937387;29;20219;-72
2023/01/07 10:42:45;;;;;;;1.55;1.30;;;;;;;11.57;100.00;100322.56;4942484;29;20196;-74
2023/01/07 10:45:48;;;;;;;1.83;1.52;;;;;;;11.63;100.00;100319.56;4938406;29;20645;-74
2023/01/07 10:48:39;;;;;;;1.50;1.10;;;;;;;11.64;100.00;100311.38;4931114;29;20256;-76
2023/01/07 10:51:16;;;;;;;2.97;1.48;;;;;;;11.62;100.00;100297.09;4937690;29;20278;-73
2023/01/07 10:53:54;;;;;;;2.00;1.30;;;;;;;11.89;100.00;100311.03;4961651;28;20682;-74
2023/01/07 10:56:28;;;;;;;2.30;1.40;;;;;;;11.91;100.00;100302.84;5016463;28;20254;-74
2023/01/07 10:58:55;;;;;;;1.80;1.40;;;;;;;11.99;100.00;100297.91;5015786;28;20195;-74
2023/01/07 11:01:25;;;;;;;2.08;1.20;;;;;;;12.02;100.00;100299.56;5017329;28;20252;-73
2023/01/07 11:03:55;;;;;;;2.25;1.35;;;;;;;11.97;100.00;100296.25;5021067;28;20274;-72
2023/01/07 11:06:32;;;;;;;1.90;1.50;;;;;;;11.86;100.00;100276.06;5021544;28;20254;-73
2023/01/07 11:09:00;;;;;;;1.50;1.05;;;;;;;11.91;100.00;100277.69;5019985;28;20190;-72
2023/01/07 11:11:28;;;;;;;2.20;1.20;;;;;;;11.81;100.00;100275.44;5003935;28;20227;-71
2023/01/07 11:14:01;;;;;;;1.90;1.35;;;;;;;11.90;100.00;100274.13;5025876;28;20294;-74
2023/01/07 11:16:32;;;;;;;2.13;1.30;;;;;;;11.95;100.00;100279.28;5022249;28;20205;-75
2023/01/07 11:19:04;;;;;;;1.85;1.30;;;;;;;11.89;100.00;100265.16;5027449;28;20207;-76
2023/01/07 11:21:32;;;;;;;1.60;0.95;;;;;;;11.87;100.00;100258.97;5014396;28;20214;-75
2023/01/07 11:24:00;;;;;;;1.42;0.88;;;;;;;11.83;100.00;100260.03;5015104;28;20210;-74
2023/01/07 11:26:31;;;;;;;1.50;0.90;;;;;;;11.78;100.00;100251.31;5012677;28;20199;-74
2023/01/07 11:29:00;;;;;;;1.40;0.90;;;;;;;11.76;100.00;100255.94;5005858;28;20621;-74
2023/01/07 11:31:46;;;;;;;1.48;1.00;;;;;;;11.64;100.00;100230.44;5030971;28;20242;-76
2023/01/07 11:34:25;;;;;;;2.15;1.10;;;;;;;11.59;100.00;100220.84;5039790;28;20266;-76